createdAt,value
2022-09-02T00:00:25.705Z,1015.50
2022-09-02T00:01:24.734Z,1015.53
2022-09-02T00:02:24.799Z,1015.50
2022-09-02T00:03:25.619Z,1015.50
2022-09-02T00:04:25.376Z,1015.49
2022-09-02T00:05:24.724Z,1015.45
2022-09-02T00:06:24.747Z,1015.46
2022-09-02T00:07:26.675Z,1015.47
2022-09-02T00:08:24.685Z,1015.42
2022-09-02T00:09:24.665Z,1015.42
2022-09-02T00:10:24.668Z,1015.39
2022-09-02T00:11:25.297Z,1015.41
2022-09-02T00:12:25.277Z,1015.39
2022-09-02T00:13:24.645Z,1015.41
2022-09-02T00:14:25.961Z,1015.40
2022-09-02T00:15:25.254Z,1015.38
2022-09-02T00:16:24.615Z,1015.35
2022-09-02T00:17:24.546Z,1015.36
2022-09-02T00:18:24.567Z,1015.34
2022-09-02T00:19:25.203Z,1015.33
2022-09-02T00:20:25.219Z,1015.32
2022-09-02T00:21:26.505Z,1015.31
2022-09-02T00:22:24.489Z,1015.30
2022-09-02T00:23:25.536Z,1015.27
2022-09-02T00:24:24.511Z,1015.29
2022-09-02T00:25:24.510Z,1015.27
2022-09-02T00:26:26.900Z,1015.24
2022-09-02T00:27:24.432Z,1015.25
2022-09-02T00:28:25.429Z,1015.20
2022-09-02T00:29:24.411Z,1015.24
2022-09-02T00:30:24.469Z,1015.21
2022-09-02T00:31:25.212Z,1015.20
2022-09-02T00:32:25.064Z,1015.20
2022-09-02T00:33:24.374Z,1015.21
2022-09-02T00:34:24.373Z,1015.20
2022-09-02T00:35:25.043Z,1015.15
2022-09-02T00:36:26.907Z,1015.16
2022-09-02T00:37:25.013Z,1015.19
2022-09-02T00:38:26.257Z,1015.21
2022-09-02T00:39:24.516Z,1015.20
2022-09-02T00:40:24.328Z,1015.18
2022-09-02T00:41:24.974Z,1015.19
2022-09-02T00:42:26.346Z,1015.16
2022-09-02T00:43:26.265Z,1015.14
2022-09-02T00:44:24.955Z,1015.13
2022-09-02T00:45:24.287Z,1015.10
2022-09-02T00:46:26.169Z,1015.16
2022-09-02T00:47:24.903Z,1015.12
2022-09-02T00:48:24.275Z,1015.10
2022-09-02T00:49:26.667Z,1015.15
2022-09-02T00:50:24.237Z,1015.12
2022-09-02T00:51:24.857Z,1015.15
2022-09-02T00:52:24.237Z,1015.13
2022-09-02T00:53:24.208Z,1015.13
2022-09-02T00:54:24.827Z,1015.10
2022-09-02T00:55:24.819Z,1015.08
2022-09-02T00:56:25.129Z,1015.08
2022-09-02T00:57:24.179Z,1015.07
2022-09-02T00:58:24.810Z,1015.10
2022-09-02T00:59:24.770Z,1015.06
2022-09-02T01:00:24.132Z,1015.05
2022-09-02T01:01:25.101Z,1015.07
2022-09-02T01:02:24.390Z,1015.08
2022-09-02T01:03:24.739Z,1015.05
2022-09-02T01:04:24.147Z,1015.04
2022-09-02T01:05:24.702Z,1015.03
2022-09-02T01:06:26.464Z,1015.01
2022-09-02T01:07:23.992Z,1015.02
2022-09-02T01:08:24.988Z,1015.06
2022-09-02T01:09:24.676Z,1015.02
2022-09-02T01:10:24.663Z,1015.02
2022-09-02T01:11:24.642Z,1015.01
2022-09-02T01:12:24.626Z,1015.02
2022-09-02T01:13:23.944Z,1015.01
2022-09-02T01:14:28.610Z,1015.03
2022-09-02T01:15:24.620Z,1015.05
2022-09-02T01:16:24.621Z,1015.06
2022-09-02T01:17:23.895Z,1015.06
2022-09-02T01:18:26.387Z,1015.05
2022-09-02T01:19:23.883Z,1015.04
2022-09-02T01:20:24.512Z,1015.01
2022-09-02T01:21:23.905Z,1015.03
2022-09-02T01:22:24.518Z,1015.04
2022-09-02T01:23:23.854Z,1015.01
2022-09-02T01:24:24.806Z,1015.02
2022-09-02T01:25:24.496Z,1015.02
2022-09-02T01:26:24.501Z,1015.06
2022-09-02T01:27:24.467Z,1015.06
2022-09-02T01:28:24.780Z,1015.02
2022-09-02T01:29:24.449Z,1015.02
2022-09-02T01:30:23.883Z,1015.00
2022-09-02T01:31:24.478Z,1015.01
2022-09-02T01:32:23.738Z,1015.03
2022-09-02T01:33:25.295Z,1015.01
2022-09-02T01:34:24.394Z,1015.01
2022-09-02T01:35:24.380Z,1014.97
2022-09-02T01:36:24.372Z,1014.96
2022-09-02T01:37:24.652Z,1014.97
2022-09-02T01:38:24.343Z,1015.01
2022-09-02T01:39:23.650Z,1014.99
2022-09-02T01:40:24.360Z,1014.99
2022-09-02T01:41:25.571Z,1014.98
2022-09-02T01:42:24.290Z,1014.94
2022-09-02T01:43:24.293Z,1014.93
2022-09-02T01:44:24.594Z,1014.89
2022-09-02T01:45:26.004Z,1014.94
2022-09-02T01:46:24.271Z,1014.92
2022-09-02T01:47:24.252Z,1014.92
2022-09-02T01:48:23.591Z,1014.93
2022-09-02T01:49:24.223Z,1014.91
2022-09-02T01:50:23.751Z,1014.88
2022-09-02T01:51:24.216Z,1014.88
2022-09-02T01:52:24.195Z,1014.91
2022-09-02T01:53:23.621Z,1014.87
2022-09-02T01:54:24.175Z,1014.87
2022-09-02T01:55:25.928Z,1014.86
2022-09-02T01:56:25.146Z,1014.84
2022-09-02T01:57:24.395Z,1014.85
2022-09-02T01:58:23.462Z,1014.85
2022-09-02T01:59:24.124Z,1014.80
2022-09-02T02:00:24.497Z,1014.78
2022-09-02T02:01:23.469Z,1014.78
2022-09-02T02:02:24.122Z,1014.75
2022-09-02T02:03:24.078Z,1014.76
2022-09-02T02:04:23.377Z,1014.75
2022-09-02T02:05:23.387Z,1014.77
2022-09-02T02:06:24.039Z,1014.77
2022-09-02T02:07:24.029Z,1014.74
2022-09-02T02:08:24.019Z,1014.76
2022-09-02T02:09:24.025Z,1014.74
2022-09-02T02:10:23.993Z,1014.75
2022-09-02T02:11:23.989Z,1014.78
2022-09-02T02:12:23.968Z,1014.72
2022-09-02T02:13:24.040Z,1014.75
2022-09-02T02:14:23.271Z,1014.76
2022-09-02T02:16:00.126Z,1014.72
2022-09-02T02:17:00.056Z,1014.74
2022-09-02T02:18:00.058Z,1014.74
2022-09-02T02:19:00.021Z,1014.72
2022-09-02T02:20:00.940Z,1014.72
2022-09-02T02:21:00.678Z,1014.72
2022-09-02T02:21:59.989Z,1014.70
2022-09-02T02:23:00.654Z,1014.70
2022-09-02T02:24:00.629Z,1014.70
2022-09-02T02:25:00.620Z,1014.70
2022-09-02T02:26:00.618Z,1014.69
2022-09-02T02:26:59.920Z,1014.69
2022-09-02T02:28:00.602Z,1014.63
2022-09-02T02:29:00.591Z,1014.65
2022-09-02T02:30:00.573Z,1014.64
2022-09-02T02:31:00.631Z,1014.62
2022-09-02T02:31:59.883Z,1014.63
2022-09-02T02:33:00.544Z,1014.63
2022-09-02T02:33:59.852Z,1014.65
2022-09-02T02:34:59.845Z,1014.62
2022-09-02T02:35:59.855Z,1014.61
2022-09-02T02:36:59.824Z,1014.60
2022-09-02T02:38:02.867Z,1014.59
2022-09-02T02:38:59.796Z,1014.60
2022-09-02T02:39:59.805Z,1014.57
2022-09-02T02:40:59.789Z,1014.60
2022-09-02T02:41:59.824Z,1014.57
2022-09-02T02:43:00.449Z,1014.58
2022-09-02T02:43:59.754Z,1014.56
2022-09-02T02:44:59.735Z,1014.54
2022-09-02T02:45:59.728Z,1014.55
2022-09-02T02:46:59.778Z,1014.54
2022-09-02T02:47:59.756Z,1014.55
2022-09-02T02:49:00.378Z,1014.54
2022-09-02T02:49:59.698Z,1014.52
2022-09-02T02:51:00.361Z,1014.51
2022-09-02T02:52:00.338Z,1014.53
2022-09-02T02:52:59.717Z,1014.53
2022-09-02T02:54:00.307Z,1014.52
2022-09-02T02:54:59.659Z,1014.51
2022-09-02T02:55:59.639Z,1014.54
2022-09-02T02:57:00.293Z,1014.52
2022-09-02T02:58:00.290Z,1014.53
2022-09-02T02:59:00.269Z,1014.55
2022-09-02T02:59:59.719Z,1014.53
2022-09-02T03:01:00.252Z,1014.51
2022-09-02T03:02:00.380Z,1014.51
2022-09-02T03:03:00.283Z,1014.54
2022-09-02T03:03:59.552Z,1014.52
2022-09-02T03:04:59.524Z,1014.51
2022-09-02T03:05:59.550Z,1014.51
2022-09-02T03:07:00.191Z,1014.53
2022-09-02T03:08:00.931Z,1014.54
2022-09-02T03:09:00.163Z,1014.51
2022-09-02T03:10:00.176Z,1014.51
2022-09-02T03:11:00.144Z,1014.51
2022-09-02T03:11:59.484Z,1014.49
2022-09-02T03:12:59.646Z,1014.50
2022-09-02T03:14:01.054Z,1014.44
2022-09-02T03:15:02.851Z,1014.46
2022-09-02T03:15:59.649Z,1014.50
2022-09-02T03:16:59.632Z,1014.47
2022-09-02T03:18:00.072Z,1014.48
2022-09-02T03:18:59.386Z,1014.50
2022-09-02T03:20:00.057Z,1014.50
2022-09-02T03:20:59.371Z,1014.51
2022-09-02T03:22:00.026Z,1014.54
2022-09-02T03:23:00.006Z,1014.57
2022-09-02T03:24:00.050Z,1014.52
2022-09-02T03:24:59.994Z,1014.55
2022-09-02T03:25:59.396Z,1014.53
2022-09-02T03:26:59.287Z,1014.53
2022-09-02T03:27:59.297Z,1014.55
2022-09-02T03:29:00.131Z,1014.48
2022-09-02T03:29:59.941Z,1014.52
2022-09-02T03:30:59.979Z,1014.50
2022-09-02T03:31:59.227Z,1014.48
2022-09-02T03:33:03.605Z,1014.49
2022-09-02T03:34:00.928Z,1014.53
2022-09-02T03:34:59.248Z,1014.48
2022-09-02T03:36:00.198Z,1014.49
2022-09-02T03:36:59.901Z,1014.47
2022-09-02T03:37:59.179Z,1014.46
2022-09-02T03:38:59.201Z,1014.47
2022-09-02T03:39:59.220Z,1014.44
2022-09-02T03:40:59.139Z,1014.44
2022-09-02T03:41:59.180Z,1014.44
2022-09-02T03:43:00.588Z,1014.44
2022-09-02T03:43:59.134Z,1014.40
2022-09-02T03:44:59.093Z,1014.40
2022-09-02T03:45:59.831Z,1014.38
2022-09-02T03:46:59.760Z,1014.35
2022-09-02T03:47:59.106Z,1014.38
2022-09-02T03:48:59.101Z,1014.36
2022-09-02T03:49:59.725Z,1014.37
2022-09-02T03:50:59.713Z,1014.32
2022-09-02T03:51:59.053Z,1014.37
2022-09-02T03:52:59.022Z,1014.36
2022-09-02T03:53:59.681Z,1014.34
2022-09-02T03:55:00.564Z,1014.34
2022-09-02T03:55:59.905Z,1014.31
2022-09-02T03:56:59.652Z,1014.31
2022-09-02T03:57:59.662Z,1014.33
2022-09-02T03:59:00.056Z,1014.28
2022-09-02T03:59:59.056Z,1014.26
2022-09-02T04:00:59.617Z,1014.21
2022-09-02T04:01:59.662Z,1014.25
2022-09-02T04:02:58.989Z,1014.27
2022-09-02T04:04:01.220Z,1014.23
2022-09-02T04:04:58.904Z,1014.22
2022-09-02T04:05:59.547Z,1014.20
2022-09-02T04:06:59.546Z,1014.21
2022-09-02T04:07:58.848Z,1014.22
2022-09-02T04:09:00.179Z,1014.19
2022-09-02T04:09:59.515Z,1014.20
2022-09-02T04:10:58.819Z,1014.20
2022-09-02T04:11:58.859Z,1014.18
2022-09-02T04:12:58.798Z,1014.20
2022-09-02T04:13:58.779Z,1014.17
2022-09-02T04:14:59.459Z,1014.19
2022-09-02T04:16:01.831Z,1014.14
2022-09-02T04:16:58.780Z,1014.16
2022-09-02T04:17:59.440Z,1014.16
2022-09-02T04:18:58.782Z,1014.13
2022-09-02T04:19:58.740Z,1014.15
2022-09-02T04:20:59.393Z,1014.15
2022-09-02T04:21:58.704Z,1014.18
2022-09-02T04:22:59.631Z,1014.13
2022-09-02T04:23:59.352Z,1014.17
2022-09-02T04:24:59.621Z,1014.13
2022-09-02T04:25:58.641Z,1014.14
2022-09-02T04:27:03.875Z,1014.18
2022-09-02T04:28:00.315Z,1014.12
2022-09-02T04:28:59.310Z,1014.13
2022-09-02T04:29:59.294Z,1014.15
2022-09-02T04:30:58.661Z,1014.15
2022-09-02T04:31:59.274Z,1014.16
2022-09-02T04:32:59.253Z,1014.13
2022-09-02T04:33:58.654Z,1014.11
2022-09-02T04:34:58.556Z,1014.09
2022-09-02T04:35:59.224Z,1014.11
2022-09-02T04:36:59.216Z,1014.15
2022-09-02T04:37:58.534Z,1014.12
2022-09-02T04:38:59.204Z,1014.09
2022-09-02T04:39:59.185Z,1014.07
2022-09-02T04:40:59.168Z,1014.14
2022-09-02T04:41:59.157Z,1014.09
2022-09-02T04:42:58.466Z,1014.12
2022-09-02T04:43:59.401Z,1014.14
2022-09-02T04:44:59.137Z,1014.08
2022-09-02T04:45:58.593Z,1014.10
2022-09-02T04:46:58.424Z,1014.07
2022-09-02T04:47:58.418Z,1014.07
2022-09-02T04:48:59.089Z,1014.13
2022-09-02T04:49:59.070Z,1014.10
2022-09-02T04:50:59.071Z,1014.11
2022-09-02T04:51:59.048Z,1014.13
2022-09-02T04:52:58.353Z,1014.15
2022-09-02T04:53:59.033Z,1014.13
2022-09-02T04:54:59.024Z,1014.13
2022-09-02T04:55:59.013Z,1014.14
2022-09-02T04:56:58.460Z,1014.14
2022-09-02T04:57:58.989Z,1014.14
2022-09-02T04:58:58.990Z,1014.17
2022-09-02T04:59:58.987Z,1014.12
2022-09-02T05:00:58.971Z,1014.10
2022-09-02T05:01:58.994Z,1014.13
2022-09-02T05:02:58.967Z,1014.06
2022-09-02T05:03:58.242Z,1014.09
2022-09-02T05:04:58.221Z,1014.08
2022-09-02T05:05:58.881Z,1014.07
2022-09-02T05:06:58.214Z,1014.10
2022-09-02T05:07:58.881Z,1014.06
2022-09-02T05:08:58.861Z,1014.09
2022-09-02T05:09:58.854Z,1014.07
2022-09-02T05:10:58.845Z,1014.08
2022-09-02T05:11:58.202Z,1014.10
2022-09-02T05:12:58.816Z,1014.10
2022-09-02T05:13:58.181Z,1014.10
2022-09-02T05:14:58.118Z,1014.09
2022-09-02T05:15:58.128Z,1014.09
2022-09-02T05:16:58.782Z,1014.10
2022-09-02T05:17:58.834Z,1014.08
2022-09-02T05:18:58.086Z,1014.13
2022-09-02T05:19:58.747Z,1014.12
2022-09-02T05:20:58.055Z,1014.13
2022-09-02T05:21:58.722Z,1014.11
2022-09-02T05:22:58.705Z,1014.09
2022-09-02T05:23:58.138Z,1014.14
2022-09-02T05:24:58.010Z,1014.11
2022-09-02T05:25:57.987Z,1014.09
2022-09-02T05:26:57.980Z,1014.11
2022-09-02T05:27:57.987Z,1014.11
2022-09-02T05:28:57.974Z,1014.15
2022-09-02T05:29:58.610Z,1014.14
2022-09-02T05:30:58.673Z,1014.18
2022-09-02T05:31:59.362Z,1014.18
2022-09-02T05:32:58.598Z,1014.19
2022-09-02T05:33:58.601Z,1014.16
2022-09-02T05:34:57.909Z,1014.25
2022-09-02T05:35:57.957Z,1014.28
2022-09-02T05:36:58.559Z,1014.24
2022-09-02T05:38:00.907Z,1014.27
2022-09-02T05:38:57.897Z,1014.25
2022-09-02T05:39:57.848Z,1014.29
2022-09-02T05:40:58.555Z,1014.30
2022-09-02T05:41:57.860Z,1014.30
2022-09-02T05:42:57.822Z,1014.29
2022-09-02T05:43:59.079Z,1014.35
2022-09-02T05:44:58.468Z,1014.35
2022-09-02T05:45:57.930Z,1014.37
2022-09-02T05:46:57.802Z,1014.42
2022-09-02T05:47:57.785Z,1014.38
2022-09-02T05:48:57.762Z,1014.40
2022-09-02T05:49:57.763Z,1014.40
2022-09-02T05:50:58.592Z,1014.38
2022-09-02T05:51:58.402Z,1014.40
2022-09-02T05:52:58.384Z,1014.40
2022-09-02T05:53:57.734Z,1014.47
2022-09-02T05:54:57.689Z,1014.40
2022-09-02T05:55:57.667Z,1014.47
2022-09-02T05:56:58.336Z,1014.45
2022-09-02T05:57:58.348Z,1014.50
2022-09-02T05:58:57.655Z,1014.52
2022-09-02T05:59:58.308Z,1014.48
2022-09-02T06:00:57.626Z,1014.44
2022-09-02T06:01:58.330Z,1014.46
2022-09-02T06:03:00.163Z,1014.39
2022-09-02T06:03:57.595Z,1014.39
2022-09-02T06:04:58.263Z,1014.39
2022-09-02T06:05:58.406Z,1014.43
2022-09-02T06:06:57.548Z,1014.45
2022-09-02T06:07:58.218Z,1014.44
2022-09-02T06:08:57.562Z,1014.41
2022-09-02T06:09:58.205Z,1014.41
2022-09-02T06:10:57.539Z,1014.40
2022-09-02T06:11:57.538Z,1014.35
2022-09-02T06:12:58.186Z,1014.40
2022-09-02T06:13:58.404Z,1014.35
2022-09-02T06:14:58.160Z,1014.34
2022-09-02T06:15:57.464Z,1014.31
2022-09-02T06:16:58.123Z,1014.32
2022-09-02T06:17:57.565Z,1014.31
2022-09-02T06:18:57.444Z,1014.30
2022-09-02T06:19:59.344Z,1014.27
2022-09-02T06:20:57.440Z,1014.25
2022-09-02T06:21:58.071Z,1014.24
2022-09-02T06:22:57.362Z,1014.26
2022-09-02T06:23:58.053Z,1014.24
2022-09-02T06:24:57.365Z,1014.21
2022-09-02T06:25:58.074Z,1014.21
2022-09-02T06:26:57.332Z,1014.27
2022-09-02T06:27:58.007Z,1014.26
2022-09-02T06:28:57.316Z,1014.35
2022-09-02T06:29:59.236Z,1014.36
2022-09-02T06:30:57.986Z,1014.34
2022-09-02T06:31:57.286Z,1014.30
2022-09-02T06:32:57.287Z,1014.38
2022-09-02T06:33:57.293Z,1014.38
2022-09-02T06:34:57.928Z,1014.40
2022-09-02T06:35:57.910Z,1014.37
2022-09-02T06:36:57.219Z,1014.32
2022-09-02T06:37:57.893Z,1014.39
2022-09-02T06:38:57.213Z,1014.34
2022-09-02T06:39:57.881Z,1014.34
2022-09-02T06:40:57.189Z,1014.31
2022-09-02T06:41:57.854Z,1014.37
2022-09-02T06:42:57.159Z,1014.36
2022-09-02T06:43:57.143Z,1014.36
2022-09-02T06:44:57.820Z,1014.40
2022-09-02T06:45:57.176Z,1014.39
2022-09-02T06:46:57.172Z,1014.37
2022-09-02T06:47:57.132Z,1014.43
2022-09-02T06:48:57.783Z,1014.39
2022-09-02T06:49:57.771Z,1014.38
2022-09-02T06:50:57.176Z,1014.34
2022-09-02T06:51:57.759Z,1014.39
2022-09-02T06:52:57.735Z,1014.39
2022-09-02T06:53:57.141Z,1014.43
2022-09-02T06:54:57.072Z,1014.48
2022-09-02T06:55:57.695Z,1014.43
2022-09-02T06:56:57.731Z,1014.39
2022-09-02T06:57:56.990Z,1014.39
2022-09-02T06:58:57.708Z,1014.36
2022-09-02T07:00:02.203Z,1014.40
2022-09-02T07:00:58.000Z,1014.42
2022-09-02T07:01:57.763Z,1014.44
2022-09-02T07:02:57.754Z,1014.45
2022-09-02T07:03:56.928Z,1014.44
2022-09-02T07:04:57.688Z,1014.44
2022-09-02T07:05:56.967Z,1014.43
2022-09-02T07:06:56.930Z,1014.42
2022-09-02T07:07:56.901Z,1014.45
2022-09-02T07:08:57.571Z,1014.44
2022-09-02T07:09:57.574Z,1014.49
2022-09-02T07:10:56.873Z,1014.49
2022-09-02T07:12:00.862Z,1014.43
2022-09-02T07:12:59.331Z,1014.40
2022-09-02T07:13:57.502Z,1014.38
2022-09-02T07:14:56.862Z,1014.33
2022-09-02T07:15:57.490Z,1014.44
2022-09-02T07:16:56.869Z,1014.50
2022-09-02T07:17:57.000Z,1014.53
2022-09-02T07:18:57.462Z,1014.51
2022-09-02T07:19:56.819Z,1014.53
2022-09-02T07:20:56.804Z,1014.54
2022-09-02T07:21:56.755Z,1014.56
2022-09-02T07:22:56.939Z,1014.56
2022-09-02T07:23:57.422Z,1014.56
2022-09-02T07:24:57.397Z,1014.51
2022-09-02T07:25:57.396Z,1014.51
2022-09-02T07:26:56.696Z,1014.60
2022-09-02T07:27:57.357Z,1014.63
2022-09-02T07:28:56.716Z,1014.53
2022-09-02T07:29:57.337Z,1014.61
2022-09-02T07:30:59.798Z,1014.57
2022-09-02T07:31:57.360Z,1014.57
2022-09-02T07:32:56.631Z,1014.67
2022-09-02T07:33:57.313Z,1014.76
2022-09-02T07:34:56.600Z,1014.75
2022-09-02T07:35:56.660Z,1014.74
2022-09-02T07:37:04.091Z,1014.76
2022-09-02T07:37:58.262Z,1014.62
2022-09-02T07:38:57.250Z,1014.71
2022-09-02T07:39:56.540Z,1014.76
2022-09-02T07:40:56.859Z,1014.84
2022-09-02T07:41:57.212Z,1014.74
2022-09-02T07:43:59.659Z,1014.73
2022-09-02T07:44:57.184Z,1014.71
2022-09-02T07:45:56.599Z,1014.72
2022-09-02T07:46:57.154Z,1014.70
2022-09-02T07:47:56.542Z,1014.69
2022-09-02T07:48:57.143Z,1014.67
2022-09-02T07:50:58.115Z,1014.66
2022-09-02T07:51:56.450Z,1014.60
2022-09-02T07:52:56.456Z,1014.62
2022-09-02T07:53:57.110Z,1014.59
2022-09-02T07:54:57.078Z,1014.56
2022-09-02T07:55:57.066Z,1014.53
2022-09-02T07:56:56.380Z,1014.51
2022-09-02T07:57:56.378Z,1014.43
2022-09-02T07:58:57.046Z,1014.41
2022-09-02T07:59:56.399Z,1014.49
2022-09-02T08:00:56.394Z,1014.36
2022-09-02T08:01:56.337Z,1014.40
2022-09-02T08:02:56.448Z,1014.39
2022-09-02T08:03:56.388Z,1014.43
2022-09-02T08:06:09.906Z,1014.42
2022-09-02T08:07:10.377Z,1014.39
2022-09-02T08:08:10.367Z,1014.36
2022-09-02T08:09:07.929Z,1014.37
2022-09-02T08:10:07.940Z,1014.31
2022-09-02T08:11:08.886Z,1014.36
2022-09-02T08:12:07.930Z,1014.38
2022-09-02T08:13:09.844Z,1014.32
2022-09-02T08:14:07.874Z,1014.29
2022-09-02T08:15:07.879Z,1014.27
2022-09-02T08:16:07.951Z,1014.26
2022-09-02T08:17:10.284Z,1014.27
2022-09-02T08:18:08.556Z,1014.22
2022-09-02T08:19:10.745Z,1014.26
2022-09-02T08:20:12.254Z,1014.26
2022-09-02T08:21:07.795Z,1014.25
2022-09-02T08:22:09.735Z,1014.25
2022-09-02T08:23:18.459Z,1014.27
2022-09-02T08:24:10.214Z,1014.25
2022-09-02T08:25:10.196Z,1014.22
2022-09-02T08:26:09.682Z,1014.22
2022-09-02T08:27:08.434Z,1014.22
2022-09-02T08:28:08.690Z,1014.22
2022-09-02T08:29:08.416Z,1014.24
2022-09-02T08:30:08.391Z,1014.24
2022-09-02T08:31:07.698Z,1014.23
2022-09-02T08:32:07.733Z,1014.21
2022-09-02T08:33:08.398Z,1014.23
2022-09-02T08:34:08.362Z,1014.21
2022-09-02T08:35:08.350Z,1014.18
2022-09-02T08:36:08.368Z,1014.19
2022-09-02T08:37:08.322Z,1014.15
2022-09-02T08:38:07.621Z,1014.18
2022-09-02T08:39:07.610Z,1014.21
2022-09-02T08:40:08.357Z,1014.14
2022-09-02T08:41:08.282Z,1014.13
2022-09-02T08:42:08.266Z,1014.19
2022-09-02T08:43:07.581Z,1014.19
2022-09-02T08:44:07.579Z,1014.15
2022-09-02T08:45:08.012Z,1014.15
2022-09-02T08:46:08.291Z,1014.17
2022-09-02T08:47:08.212Z,1014.21
2022-09-02T08:48:08.272Z,1014.21
2022-09-02T08:49:07.549Z,1014.15
2022-09-02T08:50:07.493Z,1014.12
2022-09-02T08:51:08.176Z,1014.16
2022-09-02T08:52:07.573Z,1014.18
2022-09-02T08:53:07.447Z,1014.12
2022-09-02T08:54:08.171Z,1014.04
2022-09-02T08:55:08.125Z,1013.96
2022-09-02T08:56:07.560Z,1013.96
2022-09-02T08:57:08.106Z,1013.95
2022-09-02T08:58:07.437Z,1013.98
2022-09-02T08:59:07.448Z,1014.02
2022-09-02T09:00:07.591Z,1014.04
2022-09-02T09:01:08.091Z,1013.94
2022-09-02T09:02:07.398Z,1013.90
2022-09-02T09:03:07.573Z,1013.90
2022-09-02T09:04:08.029Z,1013.89
2022-09-02T09:05:08.018Z,1013.91
2022-09-02T09:06:08.009Z,1013.80
2022-09-02T09:07:08.003Z,1013.85
2022-09-02T09:08:09.768Z,1013.86
2022-09-02T09:09:07.983Z,1013.78
2022-09-02T09:10:07.963Z,1013.81
2022-09-02T09:11:07.300Z,1013.74
2022-09-02T09:12:07.935Z,1013.80
2022-09-02T09:13:07.940Z,1013.80
2022-09-02T09:14:07.915Z,1013.73
2022-09-02T09:15:07.269Z,1013.72
2022-09-02T09:16:07.982Z,1013.76
2022-09-02T09:17:07.204Z,1013.82
2022-09-02T09:18:07.876Z,1013.79
2022-09-02T09:19:08.828Z,1013.73
2022-09-02T09:20:07.269Z,1013.70
2022-09-02T09:21:07.923Z,1013.77
2022-09-02T09:22:07.838Z,1013.77
2022-09-02T09:23:07.822Z,1013.71
2022-09-02T09:24:07.859Z,1013.69
2022-09-02T09:25:07.136Z,1013.61
2022-09-02T09:26:07.169Z,1013.67
2022-09-02T09:27:07.787Z,1013.67
2022-09-02T09:28:07.081Z,1013.58
2022-09-02T09:29:07.059Z,1013.63
2022-09-02T09:30:08.644Z,1013.60
2022-09-02T09:31:07.071Z,1013.60
2022-09-02T09:32:07.971Z,1013.59
2022-09-02T09:33:07.034Z,1013.52
2022-09-02T09:34:07.718Z,1013.50
2022-09-02T09:35:07.012Z,1013.42
2022-09-02T09:36:07.680Z,1013.41
2022-09-02T09:37:07.012Z,1013.43
2022-09-02T09:38:07.676Z,1013.46
2022-09-02T09:39:07.235Z,1013.42
2022-09-02T09:40:07.000Z,1013.46
2022-09-02T09:41:07.640Z,1013.39
2022-09-02T09:42:07.004Z,1013.40
2022-09-02T09:43:14.323Z,1013.40
2022-09-02T09:44:07.917Z,1013.43
2022-09-02T09:45:06.902Z,1013.41
2022-09-02T09:46:07.639Z,1013.39
2022-09-02T09:47:06.946Z,1013.42
2022-09-02T09:48:07.566Z,1013.43
2022-09-02T09:49:07.546Z,1013.42
2022-09-02T09:50:06.908Z,1013.47
2022-09-02T09:51:07.518Z,1013.39
2022-09-02T09:52:06.828Z,1013.37
2022-09-02T09:53:06.839Z,1013.37
2022-09-02T09:54:06.829Z,1013.37
2022-09-02T09:55:06.809Z,1013.34
2022-09-02T09:56:06.770Z,1013.35
2022-09-02T09:57:06.797Z,1013.34
2022-09-02T09:58:06.781Z,1013.35
2022-09-02T09:59:06.781Z,1013.27
2022-09-02T10:00:06.782Z,1013.30
2022-09-02T10:01:08.427Z,1013.33
2022-09-02T10:02:06.756Z,1013.32
2022-09-02T10:03:06.805Z,1013.35
2022-09-02T10:04:20.747Z,1013.34
2022-09-02T10:05:07.724Z,1013.32
2022-09-02T10:06:06.665Z,1013.25
2022-09-02T10:07:06.654Z,1013.29
2022-09-02T10:08:09.898Z,1013.32
2022-09-02T10:09:08.326Z,1013.26
2022-09-02T10:10:07.319Z,1013.25
2022-09-02T10:11:07.285Z,1013.23
2022-09-02T10:12:07.286Z,1013.27
2022-09-02T10:13:06.663Z,1013.25
2022-09-02T10:14:06.587Z,1013.30
2022-09-02T10:15:06.580Z,1013.29
2022-09-02T10:16:07.284Z,1013.22
2022-09-02T10:17:06.587Z,1013.17
2022-09-02T10:18:07.222Z,1013.18
2022-09-02T10:19:06.547Z,1013.26
2022-09-02T10:20:06.509Z,1013.16
2022-09-02T10:21:15.634Z,1013.20
2022-09-02T10:22:07.538Z,1013.24
2022-09-02T10:23:07.169Z,1013.21
2022-09-02T10:24:07.175Z,1013.25
2022-09-02T10:25:06.466Z,1013.23
2022-09-02T10:26:06.494Z,1013.17
2022-09-02T10:27:07.135Z,1013.14
2022-09-02T10:28:06.465Z,1013.17
2022-09-02T10:29:08.381Z,1013.13
2022-09-02T10:30:07.100Z,1013.09
2022-09-02T10:31:06.440Z,1013.15
2022-09-02T10:32:06.403Z,1013.14
2022-09-02T10:33:06.374Z,1013.16
2022-09-02T10:34:06.424Z,1013.22
2022-09-02T10:35:07.035Z,1013.28
2022-09-02T10:36:07.034Z,1013.27
2022-09-02T10:37:06.326Z,1013.06
2022-09-02T10:38:06.344Z,1012.92
2022-09-02T10:39:06.308Z,1012.98
2022-09-02T10:40:07.028Z,1012.95
2022-09-02T10:41:06.316Z,1012.94
2022-09-02T10:42:06.959Z,1012.89
2022-09-02T10:43:07.069Z,1012.90
2022-09-02T10:44:06.947Z,1012.85
2022-09-02T10:45:06.955Z,1012.94
2022-09-02T10:46:06.908Z,1012.85
2022-09-02T10:47:06.978Z,1012.88
2022-09-02T10:48:08.150Z,1012.88
2022-09-02T10:49:06.200Z,1012.87
2022-09-02T10:50:06.880Z,1012.87
2022-09-02T10:51:06.881Z,1012.83
2022-09-02T10:52:06.883Z,1012.87
2022-09-02T10:53:09.406Z,1012.91
2022-09-02T10:54:06.832Z,1012.88
2022-09-02T10:55:06.156Z,1012.89
2022-09-02T10:56:06.145Z,1012.85
2022-09-02T10:57:06.804Z,1012.87
2022-09-02T10:58:06.776Z,1012.89
2022-09-02T10:59:06.120Z,1012.84
2022-09-02T11:00:06.084Z,1012.86
2022-09-02T11:01:06.103Z,1012.90
2022-09-02T11:02:06.769Z,1012.91
2022-09-02T11:03:06.809Z,1012.82
2022-09-02T11:04:06.724Z,1012.83
2022-09-02T11:05:06.046Z,1012.78
2022-09-02T11:06:06.039Z,1012.77
2022-09-02T11:07:06.703Z,1012.77
2022-09-02T11:08:06.692Z,1012.78
2022-09-02T11:09:06.677Z,1012.68
2022-09-02T11:10:06.649Z,1012.76
2022-09-02T11:11:06.650Z,1012.68
2022-09-02T11:12:05.959Z,1012.71
2022-09-02T11:13:05.969Z,1012.70
2022-09-02T11:14:07.869Z,1012.74
2022-09-02T11:15:06.625Z,1012.69
2022-09-02T11:16:05.982Z,1012.69
2022-09-02T11:17:05.903Z,1012.73
2022-09-02T11:18:07.613Z,1012.75
2022-09-02T11:19:06.574Z,1012.68
2022-09-02T11:20:06.580Z,1012.72
2022-09-02T11:21:05.953Z,1012.64
2022-09-02T11:22:06.538Z,1012.62
2022-09-02T11:23:05.834Z,1012.58
2022-09-02T11:24:05.822Z,1012.59
2022-09-02T11:25:06.503Z,1012.56
2022-09-02T11:26:06.494Z,1012.58
2022-09-02T11:27:11.843Z,1012.62
2022-09-02T11:28:08.765Z,1012.53
2022-09-02T11:29:05.784Z,1012.57
2022-09-02T11:30:06.456Z,1012.58
2022-09-02T11:31:05.757Z,1012.55
2022-09-02T11:32:05.777Z,1012.55
2022-09-02T11:33:06.416Z,1012.53
2022-09-02T11:34:05.785Z,1012.60
2022-09-02T11:35:06.397Z,1012.57
2022-09-02T11:36:05.709Z,1012.51
2022-09-02T11:37:06.389Z,1012.57
2022-09-02T11:38:05.747Z,1012.58
2022-09-02T11:39:07.140Z,1012.59
2022-09-02T11:40:30.435Z,1012.56
2022-09-02T11:42:07.382Z,1012.45
2022-09-02T11:43:06.319Z,1012.55
2022-09-02T11:44:05.646Z,1012.52
2022-09-02T11:45:05.656Z,1012.46
2022-09-02T11:46:05.713Z,1012.42
2022-09-02T11:47:05.631Z,1012.42
2022-09-02T11:48:05.612Z,1012.38
2022-09-02T11:49:05.578Z,1012.39
2022-09-02T11:50:06.237Z,1012.39
2022-09-02T11:51:06.232Z,1012.42
2022-09-02T11:52:05.593Z,1012.50
2022-09-02T11:53:05.532Z,1012.48
2022-09-02T11:54:06.445Z,1012.47
2022-09-02T11:55:06.220Z,1012.44
2022-09-02T11:56:06.174Z,1012.39
2022-09-02T11:57:05.474Z,1012.41
2022-09-02T11:58:05.495Z,1012.40
2022-09-02T11:59:06.181Z,1012.40
2022-09-02T12:00:06.126Z,1012.35
2022-09-02T12:01:06.865Z,1012.44
2022-09-02T12:02:07.107Z,1012.45
2022-09-02T12:03:16.783Z,1012.46
2022-09-02T12:05:07.540Z,1012.35
2022-09-02T12:06:06.271Z,1012.34
2022-09-02T12:07:08.703Z,1012.37
2022-09-02T12:08:06.039Z,1012.35
2022-09-02T12:09:06.031Z,1012.34
2022-09-02T12:10:06.011Z,1012.30
2022-09-02T12:11:06.003Z,1012.30